Time;durP1;ratioP1;P1;durP2;ratioP2;P2;SDS_P1;SDS_P2;PMS_P1;PMS_P2;Temp;Humidity;BMP_temperature;BMP_pressure;BME280_temperature;BME280_humidity;BME280_pressure;Samples;Min_cycle;Max_cycle;Signal;HPM_P1;HPM_P2
2022/11/15 00:02:41;;;;;;;10.52;3.70;;;;;;;12.59;88.82;100521.69;5053526;28;20048;-58
2022/11/15 00:05:30;;;;;;;9.15;4.10;;;;;;;12.62;89.10;100518.31;5052145;28;20059;-58
2022/11/15 00:08:16;;;;;;;14.80;4.40;;;;;;;12.58;89.24;100514.56;5051858;28;20060;-57
2022/11/15 00:11:03;;;;;;;12.10;3.92;;;;;;;12.54;89.18;100505.31;5054524;28;20045;-57
2022/11/15 00:13:48;;;;;;;9.13;3.72;;;;;;;12.59;89.09;100507.09;5054851;28;20048;-57
2022/11/15 00:16:34;;;;;;;7.97;4.00;;;;;;;12.57;88.60;100495.56;5053444;28;20049;-57
2022/11/15 00:19:21;;;;;;;10.88;3.45;;;;;;;12.39;88.69;100495.63;5053199;28;20429;-59
2022/11/15 00:22:06;;;;;;;9.70;3.45;;;;;;;12.25;89.52;100494.22;5048301;28;20386;-59
2022/11/15 00:24:52;;;;;;;12.73;3.75;;;;;;;12.26;89.81;100495.81;5034816;28;20052;-59
2022/11/15 00:27:38;;;;;;;11.15;3.80;;;;;;;12.25;89.83;100496.97;5055545;28;20057;-57
2022/11/15 00:30:24;;;;;;;12.35;3.60;;;;;;;12.28;89.08;100491.59;5052445;28;20586;-57
2022/11/15 00:33:10;;;;;;;16.65;3.90;;;;;;;12.33;88.07;100490.59;5054776;28;20052;-59
2022/11/15 00:36:11;;;;;;;10.25;3.30;;;;;;;12.36;87.92;100481.69;5054074;28;20033;-59
2022/11/15 00:38:57;;;;;;;9.80;3.40;;;;;;;12.18;88.33;100480.09;5036873;28;20056;-58
2022/11/15 00:41:43;;;;;;;7.25;2.97;;;;;;;12.04;88.98;100476.75;5045745;28;20155;-57
2022/11/15 00:44:28;;;;;;;10.48;2.92;;;;;;;11.96;89.23;100475.59;5054192;28;20361;-58
2022/11/15 00:47:14;;;;;;;12.23;3.22;;;;;;;11.89;89.27;100478.06;5054415;28;20503;-56
2022/11/15 00:50:00;;;;;;;12.77;3.42;;;;;;;11.99;88.75;100469.44;5054413;28;20049;-57
2022/11/15 00:52:46;;;;;;;8.65;3.03;;;;;;;12.03;88.32;100469.59;5046288;28;20054;-57
2022/11/15 00:55:32;;;;;;;16.23;2.85;;;;;;;12.06;87.99;100467.00;5051781;28;20045;-58
2022/11/15 00:58:18;;;;;;;13.60;3.05;;;;;;;12.02;88.05;100473.50;5054093;28;20049;-58
2022/11/15 01:01:12;;;;;;;14.20;3.15;;;;;;;11.95;88.26;100470.41;5053049;28;20041;-60
2022/11/15 01:04:01;;;;;;;11.52;3.20;;;;;;;11.81;88.17;100467.84;5055213;28;20131;-58
2022/11/15 01:06:50;;;;;;;13.10;3.00;;;;;;;11.83;88.32;100462.81;5049584;28;20053;-58
2022/11/15 01:09:36;;;;;;;12.57;2.97;;;;;;;11.84;88.15;100461.69;5034361;28;20061;-57
2022/11/15 01:12:22;;;;;;;9.13;2.53;;;;;;;11.62;88.60;100467.38;5052164;28;20049;-57
2022/11/15 01:15:08;;;;;;;11.18;2.75;;;;;;;11.77;88.36;100461.38;5053947;28;20045;-58
2022/11/15 01:17:54;;;;;;;12.82;2.38;;;;;;;11.79;87.82;100461.84;5055145;28;20060;-56
2022/11/15 01:20:44;;;;;;;12.98;2.75;;;;;;;11.72;88.05;100452.44;5054380;28;20609;-58
2022/11/15 01:23:30;;;;;;;;;;;;;;;11.53;88.24;100444.50;5036038;28;20056;-57
2022/11/15 01:26:17;;;;;;;11.65;3.10;;;;;;;11.44;88.90;100448.41;5053742;28;20418;-57
2022/11/15 01:29:03;;;;;;;15.57;3.40;;;;;;;11.23;89.93;100445.47;5050900;28;20053;-58
2022/11/15 01:31:48;;;;;;;10.70;2.65;;;;;;;11.25;90.44;100444.03;5057832;28;20053;-58
2022/11/15 01:34:34;;;;;;;9.32;3.50;;;;;;;11.23;90.00;100443.53;5056634;28;20512;-59
2022/11/15 01:37:20;;;;;;;11.98;3.17;;;;;;;11.38;89.79;100439.50;5057367;28;20040;-57
2022/11/15 01:40:06;;;;;;;10.32;3.28;;;;;;;11.41;89.66;100432.50;5056133;28;20397;-55
2022/11/15 01:42:52;;;;;;;10.07;3.03;;;;;;;11.38;89.23;100429.25;5056696;28;20057;-56
2022/11/15 01:45:38;;;;;;;12.45;3.10;;;;;;;11.29;89.15;100427.66;5055718;28;20052;-55
2022/11/15 01:48:30;;;;;;;10.80;3.05;;;;;;;11.40;89.04;100419.84;5057797;28;20671;-58
2022/11/15 01:51:19;;;;;;;12.00;3.00;;;;;;;11.15;89.47;100424.25;5051805;28;20048;-58
2022/11/15 01:54:08;;;;;;;11.00;3.33;;;;;;;10.95;90.35;100411.09;5055891;28;20389;-58
2022/11/15 01:57:07;;;;;;;11.45;3.30;;;;;;;10.87;90.52;100406.38;5054594;28;20052;-55
2022/11/15 01:59:53;;;;;;;14.80;3.55;;;;;;;10.79;91.52;100399.72;5036752;28;20053;-56
2022/11/15 02:02:39;;;;;;;9.35;3.17;;;;;;;10.76;91.34;100400.38;5055577;28;20055;-56
2022/11/15 02:05:25;;;;;;;11.73;3.95;;;;;;;10.80;91.41;100393.09;5056672;28;20041;-54
2022/11/15 02:08:19;;;;;;;16.95;4.40;;;;;;;10.86;91.73;100394.56;5041961;28;20052;-54
2022/11/15 02:11:09;;;;;;;13.00;4.03;;;;;;;10.84;91.11;100385.00;5056979;28;20056;-57
2022/11/15 02:13:55;;;;;;;10.27;3.67;;;;;;;10.56;91.45;100380.91;5056894;28;20045;-57
2022/11/15 02:16:44;;;;;;;10.75;2.83;;;;;;;10.70;90.78;100376.91;5054831;28;20044;-58
2022/11/15 02:19:33;;;;;;;8.80;3.05;;;;;;;10.85;90.13;100373.66;5057169;28;20045;-57
2022/11/15 02:22:33;;;;;;;11.43;3.97;;;;;;;10.86;89.77;100367.00;5056521;28;20049;-56
2022/11/15 02:25:39;;;;;;;12.70;3.13;;;;;;;10.65;90.31;100359.72;5037425;28;20045;-57
2022/11/15 02:29:03;;;;;;;14.68;3.47;;;;;;;10.55;90.27;100349.81;5052833;28;20064;-57
2022/11/15 02:32:00;;;;;;;18.35;3.88;;;;;;;10.44;90.53;100353.19;4999054;28;20054;-59
2022/11/15 02:34:47;;;;;;;13.20;3.75;;;;;;;10.42;91.25;100356.28;5035775;28;20543;-59
2022/11/15 02:37:53;;;;;;;15.88;4.28;;;;;;;10.39;91.42;100353.34;5042825;28;20045;-57
2022/11/15 02:40:52;;;;;;;11.23;3.47;;;;;;;10.31;91.76;100346.69;5047792;28;20517;-58
2022/11/15 02:43:56;;;;;;;12.65;3.65;;;;;;;10.46;91.47;100343.47;5051977;28;20061;-58
2022/11/15 02:49:54;;;;;;;18.23;3.83;;;;;;;10.34;90.64;100324.00;5036910;28;20049;-57
2022/11/15 02:52:43;;;;;;;12.30;3.88;;;;;;;10.37;90.60;100323.38;5055182;28;20045;-57
2022/11/15 02:55:38;;;;;;;12.60;3.78;;;;;;;10.31;90.66;100323.84;5037967;28;20049;-57
2022/11/15 02:58:47;;;;;;;11.43;3.45;;;;;;;10.39;90.11;100312.84;5054999;28;20067;-57
2022/11/15 03:01:57;;;;;;;13.07;4.43;;;;;;;10.27;89.14;100307.16;5054092;28;20507;-59
2022/11/15 03:04:56;;;;;;;10.00;3.42;;;;;;;10.16;90.05;100306.66;5056307;28;20045;-58
2022/11/15 03:07:55;;;;;;;10.32;3.45;;;;;;;10.32;90.26;100296.00;5055052;28;20048;-55
2022/11/15 03:10:50;;;;;;;15.35;3.70;;;;;;;10.36;89.91;100298.91;5053809;28;20049;-57
2022/11/15 03:13:49;;;;;;;12.50;3.67;;;;;;;10.40;89.02;100291.63;5036382;28;20064;-53
2022/11/15 03:16:38;;;;;;;16.00;3.70;;;;;;;10.27;89.34;100290.63;5047180;28;20045;-58
2022/11/15 03:19:34;;;;;;;14.93;3.78;;;;;;;10.38;89.32;100288.38;5056236;28;20548;-56
2022/11/15 03:22:21;;;;;;;14.75;3.42;;;;;;;10.35;89.46;100280.78;5054559;28;20053;-58
2022/11/15 03:25:09;;;;;;;12.40;3.42;;;;;;;10.15;89.78;100279.44;5050082;28;20065;-56
2022/11/15 03:27:58;;;;;;;9.20;3.10;;;;;;;10.14;89.78;100278.66;5040252;28;20044;-56
2022/11/15 03:30:46;;;;;;;13.05;3.20;;;;;;;10.13;89.68;100278.97;5053498;28;20508;-58
2022/11/15 03:33:31;;;;;;;14.95;3.40;;;;;;;10.32;89.39;100282.22;5054941;28;20049;-58
2022/11/15 03:36:18;;;;;;;14.75;3.35;;;;;;;10.14;89.70;100264.09;5055001;28;20040;-57
2022/11/15 03:39:06;;;;;;;11.52;3.15;;;;;;;9.92;90.00;100261.44;5056008;28;20041;-58
2022/11/15 03:42:11;;;;;;;14.05;3.35;;;;;;;9.91;90.28;100263.34;5036513;28;20076;-57
2022/11/15 03:45:13;;;;;;;7.60;2.90;;;;;;;10.05;90.17;100258.53;5034606;28;20053;-58
2022/11/15 03:48:02;;;;;;;10.52;3.15;;;;;;;10.18;89.29;100257.59;5034632;28;20409;-56
2022/11/15 03:50:48;;;;;;;10.20;3.25;;;;;;;10.14;89.26;100261.34;5066066;28;20769;-58
2022/11/15 03:53:34;;;;;;;11.60;3.30;;;;;;;10.14;89.41;100262.16;5053704;28;20630;-59
2022/11/15 03:56:20;;;;;;;10.27;2.90;;;;;;;10.15;88.97;100260.19;5052587;28;20041;-58
2022/11/15 03:59:06;;;;;;;9.60;2.88;;;;;;;10.34;88.80;100252.44;5055293;28;20049;-58
2022/11/15 04:01:51;;;;;;;9.70;3.05;;;;;;;10.35;88.20;100253.25;5054967;28;20614;-57
2022/11/15 04:04:37;;;;;;;14.27;2.75;;;;;;;10.17;88.76;100247.75;5053925;28;20049;-57
2022/11/15 04:07:23;;;;;;;10.38;2.92;;;;;;;10.38;88.01;100244.34;5054407;28;20037;-59
2022/11/15 04:10:12;;;;;;;12.02;2.83;;;;;;;10.15;87.63;100243.69;5040436;28;20049;-58
2022/11/15 04:12:58;;;;;;;8.95;2.72;;;;;;;10.16;88.52;100237.06;5076621;28;20065;-58
2022/11/15 04:15:44;;;;;;;8.07;3.00;;;;;;;10.13;88.79;100237.69;5046535;28;20040;-58
2022/11/15 04:18:29;;;;;;;10.55;3.10;;;;;;;10.19;88.51;100234.47;5067904;28;20056;-58
2022/11/15 04:24:19;;;;;;;13.15;3.42;;;;;;;10.14;88.52;100242.06;5060124;28;20040;-56
2022/11/15 04:27:05;;;;;;;11.88;3.42;;;;;;;10.18;88.13;100234.81;5046271;28;20412;-59
2022/11/15 04:29:51;;;;;;;10.43;3.00;;;;;;;10.35;88.42;100232.06;5054800;28;20049;-60
2022/11/15 04:32:36;;;;;;;11.43;2.53;;;;;;;10.22;88.07;100235.75;5054991;28;20060;-58
2022/11/15 04:35:22;;;;;;;9.95;3.80;;;;;;;10.23;87.92;100227.16;5054268;28;20045;-59
2022/11/15 04:38:09;;;;;;;11.15;3.25;;;;;;;10.10;88.22;100224.56;5054992;28;20057;-58
2022/11/15 04:40:54;;;;;;;12.77;3.53;;;;;;;10.22;88.27;100219.25;5049557;28;20045;-59
2022/11/15 04:43:40;;;;;;;10.40;2.80;;;;;;;10.08;88.58;100213.03;5034815;28;20057;-60
2022/11/15 04:46:26;;;;;;;12.52;2.92;;;;;;;10.12;88.86;100214.06;5071798;28;20056;-61
2022/11/15 04:49:12;;;;;;;11.40;3.08;;;;;;;10.21;89.22;100206.63;5054868;28;20041;-57
2022/11/15 04:51:58;;;;;;;11.85;2.83;;;;;;;10.22;88.57;100194.47;5054124;28;20049;-57
2022/11/15 04:54:43;;;;;;;10.38;3.00;;;;;;;10.08;88.95;100197.38;5046195;28;20050;-55
2022/11/15 04:57:29;;;;;;;11.27;2.90;;;;;;;9.78;89.96;100200.22;5052836;28;20088;-58
2022/11/15 05:00:16;;;;;;;14.43;2.30;;;;;;;9.84;90.83;100196.19;5052895;28;20049;-58
2022/11/15 05:06:07;;;;;;;9.45;3.17;;;;;;;9.90;90.97;100181.16;5057757;28;20053;-57
2022/11/15 05:08:53;;;;;;;9.02;2.90;;;;;;;9.73;91.18;100192.94;5058658;28;20045;-65
2022/11/15 05:11:39;;;;;;;8.27;2.63;;;;;;;9.75;91.77;100189.84;5055402;28;20045;-67
2022/11/15 05:14:25;;;;;;;11.75;2.92;;;;;;;9.52;91.81;100188.38;5059320;28;20068;-67
2022/11/15 05:17:11;;;;;;;11.88;3.00;;;;;;;9.50;93.18;100180.41;5057794;28;20496;-67
2022/11/15 05:19:56;;;;;;;11.70;3.05;;;;;;;9.51;93.09;100178.47;5058437;28;20508;-65
2022/11/15 05:22:42;;;;;;;18.23;2.97;;;;;;;9.46;93.83;100181.38;5058273;28;20061;-66
2022/11/15 05:25:28;;;;;;;11.43;3.10;;;;;;;9.59;93.94;100184.00;5052358;28;20050;-65
2022/11/15 05:28:13;;;;;;;14.88;3.75;;;;;;;9.55;93.99;100187.72;5057889;28;20041;-66
2022/11/15 05:31:04;;;;;;;11.20;3.72;;;;;;;9.84;93.34;100183.25;5056786;28;20041;-66
2022/11/15 05:33:53;;;;;;;10.02;2.90;;;;;;;9.77;93.28;100185.66;5056785;28;20053;-66
2022/11/15 05:36:43;;;;;;;;;;;;;;;9.89;92.65;100193.28;5057870;28;20037;-66
2022/11/15 05:39:28;;;;;;;7.55;2.78;;;;;;;9.87;93.66;100195.53;5055490;28;19936;-67
2022/11/15 05:42:15;;;;;;;8.32;3.05;;;;;;;9.57;94.47;100188.22;5055241;28;20045;-66
2022/11/15 05:45:03;;;;;;;12.52;3.00;;;;;;;9.81;94.70;100191.34;5058305;28;20048;-67
2022/11/15 05:47:49;;;;;;;10.10;3.08;;;;;;;9.82;94.21;100185.50;5057866;28;20045;-66
2022/11/15 05:50:36;;;;;;;12.82;3.47;;;;;;;9.93;93.79;100175.00;5053779;28;20061;-66
2022/11/15 05:53:23;;;;;;;12.50;3.45;;;;;;;9.77;94.08;100169.16;5057955;28;20045;-67
2022/11/15 05:56:09;;;;;;;11.43;4.05;;;;;;;9.54;94.99;100167.66;5053280;28;20140;-66
2022/11/15 05:58:56;;;;;;;13.98;4.03;;;;;;;9.77;95.45;100162.84;5057819;28;20049;-67
2022/11/15 06:01:45;;;;;;;13.60;3.93;;;;;;;9.83;95.70;100156.06;5045428;28;20042;-67
2022/11/15 06:04:31;;;;;;;13.55;3.60;;;;;;;9.82;95.06;100152.50;5037778;28;20045;-67
2022/11/15 06:07:17;;;;;;;9.00;3.13;;;;;;;9.96;94.97;100142.16;5052590;28;20053;-65
2022/11/15 06:10:04;;;;;;;10.30;3.60;;;;;;;10.09;94.60;100134.91;5056479;28;20053;-65
2022/11/15 06:13:00;;;;;;;8.90;3.78;;;;;;;10.18;93.91;100141.22;5056284;28;20396;-65
2022/11/15 06:15:46;;;;;;;10.88;2.90;;;;;;;10.28;93.45;100134.56;5055672;28;20045;-65
2022/11/15 06:18:33;;;;;;;13.68;3.33;;;;;;;10.20;93.03;100137.00;5057832;28;20057;-66
2022/11/15 06:21:19;;;;;;;10.65;3.72;;;;;;;10.27;93.47;100124.69;5056691;28;20048;-67
2022/11/15 06:24:06;;;;;;;12.05;3.72;;;;;;;10.16;93.51;100114.00;5053107;28;20045;-65
2022/11/15 06:26:52;;;;;;;9.18;3.45;;;;;;;10.23;93.92;100103.31;5050610;28;20045;-68
2022/11/15 06:29:38;;;;;;;17.67;4.05;;;;;;;10.31;93.86;100098.94;5057345;28;20049;-66
2022/11/15 06:32:23;;;;;;;11.25;3.90;;;;;;;10.34;93.63;100105.75;5056515;28;20049;-65
2022/11/15 06:35:09;;;;;;;14.13;4.10;;;;;;;10.30;93.23;100099.28;5055620;28;20061;-66
2022/11/15 06:37:56;;;;;;;14.52;5.38;;;;;;;10.30;93.59;100105.59;5055825;28;20124;-66
2022/11/15 06:40:41;;;;;;;12.40;5.03;;;;;;;10.36;93.51;100098.75;5051160;28;20041;-68
2022/11/15 06:43:27;;;;;;;17.23;4.90;;;;;;;10.01;94.73;100077.91;5057134;28;20052;-67
2022/11/15 06:46:13;;;;;;;14.60;4.97;;;;;;;10.12;95.40;100079.22;5049954;28;20671;-66
2022/11/15 06:48:59;;;;;;;17.88;5.15;;;;;;;10.04;95.63;100075.31;5055438;28;20555;-67
2022/11/15 06:51:52;;;;;;;19.58;4.80;;;;;;;10.07;96.41;100077.44;5056237;28;20045;-66
2022/11/15 06:54:38;;;;;;;9.80;4.35;;;;;;;10.15;95.62;100073.06;5048942;28;20057;-65
2022/11/15 06:57:23;;;;;;;14.52;4.72;;;;;;;10.00;96.27;100063.34;5052967;28;20040;-66
2022/11/15 07:00:10;;;;;;;10.38;5.15;;;;;;;9.91;97.00;100054.28;5050835;28;20053;-67
2022/11/15 07:02:59;;;;;;;11.90;4.45;;;;;;;9.81;97.96;100040.06;5046782;28;20044;-65
2022/11/15 07:05:53;;;;;;;12.57;4.90;;;;;;;9.75;98.38;100039.41;5047599;28;20041;-68
2022/11/15 07:08:41;;;;;;;11.68;4.55;;;;;;;9.85;98.69;100025.31;5050125;28;20068;-66
2022/11/15 07:11:27;;;;;;;13.88;4.57;;;;;;;10.09;97.90;100014.63;5044911;28;20045;-68
2022/11/15 07:14:12;;;;;;;10.90;4.43;;;;;;;9.94;97.23;100033.56;5053958;28;20045;-66
2022/11/15 07:16:58;;;;;;;14.63;4.78;;;;;;;9.78;98.80;100041.50;5045998;28;20045;-66
2022/11/15 07:19:44;;;;;;;16.88;4.75;;;;;;;9.93;98.82;100051.22;5053069;28;20049;-66
2022/11/15 07:22:31;;;;;;;15.13;4.88;;;;;;;10.20;97.71;100050.88;5048707;28;20049;-66
2022/11/15 07:25:16;;;;;;;19.08;8.18;;;;;;;10.42;96.77;100050.66;5044826;28;20622;-66
2022/11/15 07:28:03;;;;;;;10.10;4.28;;;;;;;10.37;96.74;100045.34;5039546;28;20381;-69
2022/11/15 07:30:49;;;;;;;11.82;3.92;;;;;;;10.59;96.61;100041.53;5049853;28;20519;-70
2022/11/15 07:33:35;;;;;;;12.68;3.95;;;;;;;10.52;96.41;100055.00;5055145;28;20059;-69
2022/11/15 07:36:21;;;;;;;14.57;4.07;;;;;;;10.52;96.81;100042.03;5040770;28;20075;-68
2022/11/15 07:39:07;;;;;;;12.38;4.75;;;;;;;10.62;97.42;100038.94;5035953;28;20045;-69
2022/11/15 07:42:52;;;;;;;12.38;4.47;;;;;;;10.80;95.77;100032.22;5038316;28;21133;-68
2022/11/15 07:44:59;;;;;;;11.20;4.70;;;;;;;10.70;95.26;100026.25;5039574;28;20040;-67
2022/11/15 07:47:46;;;;;;;16.95;5.32;;;;;;;10.96;95.17;100024.19;5040988;28;20060;-67
2022/11/15 07:50:33;;;;;;;13.18;4.10;;;;;;;10.80;95.02;100010.19;5041357;28;20049;-67
2022/11/15 07:53:19;;;;;;;11.20;3.83;;;;;;;10.78;94.89;100008.88;5043582;28;20063;-68
2022/11/15 07:56:09;;;;;;;16.13;4.30;;;;;;;11.13;95.04;100000.09;5042791;28;20051;-68
2022/11/15 07:58:57;;;;;;;21.88;4.65;;;;;;;11.30;93.31;99994.44;5042706;28;20041;-69
2022/11/15 08:01:43;;;;;;;9.82;3.85;;;;;;;11.29;91.82;99997.53;5023192;28;20053;-70
2022/11/15 08:04:29;;;;;;;14.85;4.57;;;;;;;11.25;92.48;99996.59;5038253;28;20057;-69
2022/11/15 08:07:15;;;;;;;12.45;3.90;;;;;;;11.29;92.23;99990.09;5039407;28;20061;-70
2022/11/15 08:10:03;;;;;;;10.48;3.92;;;;;;;11.30;92.18;99985.38;5035172;28;20056;-69
2022/11/15 08:13:00;;;;;;;12.75;3.97;;;;;;;11.28;92.75;99982.94;5040755;28;20500;-68
2022/11/15 08:15:46;;;;;;;16.95;4.10;;;;;;;11.33;92.61;99987.47;5039778;28;20061;-70
2022/11/15 08:18:38;;;;;;;13.50;5.13;;;;;;;11.86;90.61;99978.41;5040956;28;20046;-70
2022/11/15 08:21:24;;;;;;;15.85;4.30;;;;;;;11.67;89.89;99989.97;5041051;28;20049;-69
2022/11/15 08:24:10;;;;;;;11.68;3.83;;;;;;;11.65;90.12;99983.16;5053313;28;20066;-70
2022/11/15 08:26:56;;;;;;;12.15;3.45;;;;;;;11.92;90.40;99993.63;5041863;28;20068;-69
2022/11/15 08:29:46;;;;;;;10.52;4.00;;;;;;;11.91;89.11;99980.97;5042044;28;20049;-69
2022/11/15 08:32:31;;;;;;;15.35;3.60;;;;;;;11.69;89.39;99973.06;5039245;28;20049;-69
2022/11/15 08:35:18;;;;;;;15.25;4.63;;;;;;;11.75;89.54;99971.72;5049791;28;20049;-69
2022/11/15 08:38:10;;;;;;;13.18;3.95;;;;;;;11.84;89.42;99964.97;5053006;28;20046;-69
2022/11/15 08:41:02;;;;;;;16.17;4.38;;;;;;;11.90;88.85;99960.03;5049203;28;20045;-69
2022/11/15 08:43:48;;;;;;;11.75;3.17;;;;;;;11.67;89.32;99967.09;5033222;28;20084;-69
2022/11/15 08:46:34;;;;;;;17.50;3.88;;;;;;;11.89;89.16;99962.00;5043961;28;20046;-70
2022/11/15 08:49:19;;;;;;;19.30;4.15;;;;;;;12.15;88.32;99953.44;5042821;28;20488;-70
2022/11/15 08:52:05;;;;;;;15.45;4.68;;;;;;;12.13;87.62;99953.75;5036316;28;20086;-69
2022/11/15 08:54:51;;;;;;;14.95;3.50;;;;;;;11.91;88.16;99942.31;5049365;28;20049;-69
2022/11/15 08:57:37;;;;;;;16.20;3.63;;;;;;;12.07;88.01;99938.59;5039439;28;20046;-70
2022/11/15 09:00:23;;;;;;;9.05;3.30;;;;;;;12.13;88.12;99939.97;5038723;28;21765;-70
2022/11/15 09:03:09;;;;;;;10.48;3.22;;;;;;;12.36;87.66;99932.09;5042785;28;20041;-69
2022/11/15 09:05:56;;;;;;;14.38;4.05;;;;;;;12.64;85.66;99927.47;5043680;28;20049;-71
2022/11/15 09:08:42;;;;;;;12.65;4.05;;;;;;;12.52;85.32;99921.94;5046279;28;20053;-69
2022/11/15 09:11:41;;;;;;;12.40;3.10;;;;;;;12.40;85.10;99921.94;5045589;28;20040;-69
2022/11/15 09:14:27;;;;;;;14.45;3.10;;;;;;;12.44;85.43;99923.69;5045681;28;20056;-70
2022/11/15 09:17:13;;;;;;;13.45;2.83;;;;;;;12.39;86.05;99923.91;5048049;28;20087;-70
2022/11/15 09:19:59;;;;;;;11.23;3.22;;;;;;;12.24;86.41;99921.81;5038071;28;20524;-69
2022/11/15 09:22:44;;;;;;;7.78;2.90;;;;;;;12.35;86.16;99920.22;5048351;28;20053;-69
2022/11/15 09:25:31;;;;;;;8.80;2.83;;;;;;;12.61;85.19;99919.88;5044763;28;20052;-68
2022/11/15 09:28:17;;;;;;;9.90;3.03;;;;;;;12.70;84.08;99917.78;5042169;28;20357;-69
2022/11/15 09:31:05;;;;;;;8.70;2.88;;;;;;;12.68;83.75;99928.38;5040119;28;20057;-68
2022/11/15 09:33:51;;;;;;;10.80;3.10;;;;;;;12.48;84.36;99921.03;5035321;28;20496;-68
2022/11/15 09:36:37;;;;;;;12.15;6.07;;;;;;;12.66;84.42;99925.16;5049544;28;20389;-70
2022/11/15 09:39:23;;;;;;;17.35;4.90;;;;;;;12.81;83.79;99920.91;5036958;28;20053;-71
2022/11/15 09:42:52;;;;;;;11.45;3.55;;;;;;;12.91;83.12;99921.22;5047603;28;20048;-69
2022/11/15 09:45:51;;;;;;;9.65;3.15;;;;;;;12.98;82.68;99920.63;5025665;28;20152;-69
2022/11/15 09:48:55;;;;;;;9.32;2.50;;;;;;;13.07;82.13;99913.03;5035274;28;20049;-69
2022/11/15 09:51:49;;;;;;;9.70;2.70;;;;;;;13.19;81.68;99910.25;5041338;28;20065;-68
2022/11/15 09:54:17;;;;;;;11.88;3.38;;;;;;;13.33;81.11;99918.97;5042083;28;20140;-68
2022/11/15 09:57:10;;;;;;;13.02;3.00;;;;;;;13.46;80.86;99920.50;5038453;28;20052;-69
2022/11/15 10:00:04;;;;;;;6.65;2.40;;;;;;;13.34;80.85;99906.72;5037776;28;20048;-69
2022/11/15 10:03:17;;;;;;;10.70;2.50;;;;;;;13.35;81.68;99898.06;5037617;28;20049;-69
2022/11/15 10:05:46;;;;;;;11.15;2.30;;;;;;;13.27;82.02;99885.22;5038342;28;20068;-69
2022/11/15 10:08:24;;;;;;;11.27;2.60;;;;;;;13.23;82.23;99889.03;5023014;28;20057;-69
2022/11/15 10:11:05;;;;;;;10.07;2.60;;;;;;;13.24;82.75;99890.63;5042718;28;20033;-68
2022/11/15 10:13:56;;;;;;;12.73;3.08;;;;;;;13.16;82.74;99880.53;5049867;28;20617;-67
2022/11/15 10:16:52;;;;;;;7.22;2.45;;;;;;;13.28;83.04;99873.00;5037915;28;20064;-69
2022/11/15 10:19:22;;;;;;;13.38;2.78;;;;;;;13.34;83.44;99854.19;5034119;28;20050;-68
2022/11/15 10:22:27;;;;;;;10.63;4.50;;;;;;;13.37;82.91;99857.03;5047389;28;20049;-69
2022/11/15 10:25:15;;;;;;;17.05;3.33;;;;;;;13.14;83.20;99846.91;5038038;28;20045;-69
2022/11/15 10:27:44;;;;;;;10.73;2.83;;;;;;;12.88;85.67;99841.78;5031946;28;20053;-68
2022/11/15 10:30:14;;;;;;;9.80;2.55;;;;;;;13.15;85.66;99854.03;5039593;28;20416;-69
2022/11/15 10:32:43;;;;;;;9.15;3.03;;;;;;;13.23;84.96;99840.03;5049895;28;20067;-68
2022/11/15 10:35:37;;;;;;;7.75;2.95;;;;;;;13.12;84.74;99840.91;5040420;28;20440;-68
2022/11/15 10:38:09;;;;;;;7.88;2.90;;;;;;;13.17;85.42;99833.16;5041108;28;20064;-68
2022/11/15 10:40:38;;;;;;;10.93;3.28;;;;;;;12.98;85.89;99830.22;5043304;28;20063;-70
2022/11/15 10:43:18;;;;;;;11.25;2.78;;;;;;;13.01;87.38;99826.75;5036549;28;20489;-69
2022/11/15 10:45:46;;;;;;;8.95;2.85;;;;;;;12.83;88.07;99819.09;5046310;28;20053;-69
2022/11/15 10:48:13;;;;;;;11.40;3.20;;;;;;;12.72;88.70;99820.72;5046677;28;20040;-68
2022/11/15 10:50:43;;;;;;;8.07;3.30;;;;;;;12.83;88.94;99814.34;5036198;28;20052;-68
2022/11/15 10:53:16;;;;;;;12.27;3.20;;;;;;;13.09;87.85;99806.47;5038612;28;20042;-68
2022/11/15 10:55:47;;;;;;;12.18;3.67;;;;;;;12.79;88.85;99796.88;5038449;28;20307;-69
2022/11/15 10:58:33;;;;;;;8.27;3.53;;;;;;;12.67;90.14;99796.94;5049551;28;20052;-69
2022/11/15 11:01:16;;;;;;;12.93;3.55;;;;;;;12.71;90.86;99792.28;5039427;28;20052;-68
2022/11/15 11:03:45;;;;;;;11.27;3.42;;;;;;;12.86;89.80;99776.94;5039393;28;20053;-68
2022/11/15 11:06:17;;;;;;;13.00;3.58;;;;;;;12.76;90.10;99780.97;5042228;28;20136;-69
2022/11/15 11:08:56;;;;;;;13.73;3.60;;;;;;;12.68;90.77;99787.47;5027507;28;20165;-69
2022/11/15 11:11:25;;;;;;;7.88;3.40;;;;;;;12.84;90.45;99762.66;5046844;28;20045;-69
2022/11/15 11:13:52;;;;;;;7.55;3.00;;;;;;;12.78;90.51;99762.09;5046885;28;20495;-69
2022/11/15 11:16:22;;;;;;;7.93;3.33;;;;;;;12.72;90.67;99774.56;5049961;28;20076;-69
2022/11/15 11:19:31;;;;;;;12.05;3.65;;;;;;;12.74;92.31;99765.94;5037195;28;20504;-69
2022/11/15 11:22:19;;;;;;;8.18;3.28;;;;;;;13.06;91.13;99762.94;5054875;28;20393;-69
2022/11/15 11:25:11;;;;;;;14.27;3.75;;;;;;;12.96;91.07;99754.31;5047707;28;20041;-69
2022/11/15 11:27:50;;;;;;;12.10;4.03;;;;;;;12.77;91.87;99762.47;5026909;28;20064;-68
2022/11/15 11:30:22;;;;;;;12.40;4.78;;;;;;;12.94;92.56;99751.09;5027841;28;20056;-68
2022/11/15 11:32:52;;;;;;;12.70;4.90;;;;;;;13.07;91.58;99747.16;5014316;28;20057;-70
2022/11/15 11:36:06;;;;;;;10.02;4.35;;;;;;;12.94;91.98;99751.91;5035809;28;20603;-69
2022/11/15 11:38:45;;;;;;;10.88;4.18;;;;;;;12.99;92.59;99750.88;5066793;28;20060;-69
2022/11/15 11:41:38;;;;;;;12.67;4.83;;;;;;;13.01;92.52;99743.00;5032194;28;20052;-69
2022/11/15 11:44:37;;;;;;;13.52;4.82;;;;;;;13.09;92.38;99734.56;5038107;28;20412;-70
2022/11/15 11:47:12;;;;;;;11.50;6.03;;;;;;;12.98;93.22;99727.94;5035991;28;20045;-70
2022/11/15 11:49:48;;;;;;;12.43;5.78;;;;;;;13.11;93.05;99734.25;5053406;28;20076;-69
2022/11/15 11:52:26;;;;;;;11.30;5.18;;;;;;;13.15;92.61;99724.06;5040025;28;20056;-70
2022/11/15 11:54:57;;;;;;;14.25;5.47;;;;;;;13.02;93.59;99722.53;5038407;28;20052;-69
2022/11/15 11:57:35;;;;;;;;;;;;;;;13.09;93.08;99718.00;5052087;28;20492;-69
2022/11/15 12:00:22;;;;;;;11.40;5.32;;;;;;;13.12;93.74;99720.06;5042563;28;19928;-69
2022/11/15 12:02:55;;;;;;;12.23;5.07;;;;;;;13.04;94.64;99707.19;5033140;28;20492;-69
2022/11/15 12:05:28;;;;;;;10.77;5.78;;;;;;;13.10;94.27;99704.97;5038097;28;20500;-69
2022/11/15 12:08:17;;;;;;;12.43;5.15;;;;;;;13.21;94.03;99695.81;5039282;28;20052;-70
2022/11/15 12:10:50;;;;;;;10.82;4.97;;;;;;;13.28;94.18;99692.44;5045042;28;20531;-70
2022/11/15 12:13:21;;;;;;;13.13;6.43;;;;;;;13.32;93.08;99691.34;5037341;28;20456;-70
2022/11/15 12:15:56;;;;;;;14.23;5.70;;;;;;;13.58;92.83;99694.38;5038560;28;20068;-71
2022/11/15 12:18:23;;;;;;;9.25;5.00;;;;;;;13.46;92.83;99686.19;5034249;28;20068;-68
2022/11/15 12:21:14;;;;;;;10.52;5.03;;;;;;;13.51;92.55;99679.59;5031333;28;20056;-70
2022/11/15 12:23:49;;;;;;;10.77;5.55;;;;;;;13.54;92.35;99682.44;5035687;28;20057;-70
2022/11/15 12:26:30;;;;;;;9.02;4.20;;;;;;;13.67;92.07;99657.44;5038789;28;20053;-70
2022/11/15 12:29:01;;;;;;;11.02;5.07;;;;;;;13.60;92.48;99658.03;5038113;28;20064;-69
2022/11/15 12:31:34;;;;;;;10.70;5.20;;;;;;;13.61;92.79;99653.31;5038745;28;20061;-69
2022/11/15 12:34:28;;;;;;;9.27;4.00;;;;;;;13.80;92.35;99650.63;5038098;28;20045;-70
2022/11/15 12:36:56;;;;;;;16.80;5.97;;;;;;;13.65;92.68;99646.69;5053302;28;20060;-69
2022/11/15 12:40:12;;;;;;;12.40;5.68;;;;;;;13.96;91.43;99634.78;5016550;28;21846;-69
2022/11/15 12:43:16;;;;;;;9.18;5.10;;;;;;;13.90;91.75;99637.00;5027427;28;20512;-70
2022/11/15 12:45:45;;;;;;;11.00;4.47;;;;;;;13.85;91.89;99628.19;5038554;28;20049;-69
2022/11/15 12:48:15;;;;;;;8.20;4.55;;;;;;;13.78;92.67;99617.75;5041958;28;20053;-70
2022/11/15 12:50:55;;;;;;;9.55;4.47;;;;;;;13.72;93.14;99621.19;5038021;28;20473;-70
2022/11/15 12:53:25;;;;;;;10.83;4.90;;;;;;;13.79;93.30;99615.81;5032420;28;20049;-70
2022/11/15 12:56:17;;;;;;;9.70;5.57;;;;;;;13.50;93.71;99619.88;5038796;28;20303;-69
2022/11/15 12:58:58;;;;;;;12.82;6.47;;;;;;;13.73;95.07;99606.97;5034473;28;20680;-71
2022/11/15 13:01:32;;;;;;;12.93;5.97;;;;;;;13.79;94.21;99602.75;5042592;28;20040;-69
2022/11/15 13:04:21;;;;;;;10.35;5.32;;;;;;;13.87;93.18;99598.19;5036426;28;20061;-68